»·PEaware :: N127BH KSAN-KEMT

N127BH :: KSAN-KEMT

FLIGHT INFORMATION

Flight Status: Arrived
Operator: Privately registered:
United States
More flights under this callsign
Pilot: Scott M. (2887)
Aircraft: BELL TEXTRON MODEL 222/230/430
(B222)
More flights by this aircraft type
Origin: KSAN San Diego Intl-Lindbergh
United States
Destination: KEMT El Monte
United States
More flights between these airports :: More routes between these airports
Route: OCN ELB AHEIM
File this flight plan on PilotEdge
Remarks:
Altitude:
(Current/Filed)
3,500ft
Speed:
(Current/Filed)
110kts
Departed: 24-Dec-17 09:18 AM
Arrived: 24-Dec-17 10:14 AM
Distance/Time
Traveled:
91nm/0:56
Distance/Time
To Go:
Arrived

Flight Plot

Page will automatically refresh every two minutes.

Flight plan parsing failed; only flown route is shown


Map Options




Map Legend


Flown Route
Filed Route
Departure Airport
Arrival Airport
Navaid (VOR, NDB)
Fix

Horizontal Profiles

Position Reports

Time Latitude Longitude Heading Altitude Ground
Speed
24-Dec-17 08:59 32.731766 -117.175456 56 19ft 0kts
24-Dec-17 09:00 32.731766 -117.175457 56 19ft 0kts
24-Dec-17 09:01 32.731766 -117.175457 56 19ft 0kts
24-Dec-17 09:02 32.731765 -117.175457 56 19ft 0kts
24-Dec-17 09:03 32.731765 -117.175457 56 19ft 0kts
24-Dec-17 09:04 32.731765 -117.175458 56 19ft 0kts
24-Dec-17 09:05 32.731764 -117.175458 56 19ft 0kts
24-Dec-17 09:06 32.731764 -117.175458 56 19ft 0kts
24-Dec-17 09:07 32.731764 -117.175458 56 19ft 0kts
24-Dec-17 09:08 32.731764 -117.175458 56 19ft 0kts
24-Dec-17 09:09 32.731764 -117.175458 56 19ft 0kts
24-Dec-17 09:10 32.731764 -117.175459 56 19ft 0kts
24-Dec-17 09:11 32.731764 -117.175459 56 19ft 0kts
24-Dec-17 09:12 32.731764 -117.175459 56 19ft 0kts
24-Dec-17 09:13 32.731763 -117.175459 56 19ft 0kts
24-Dec-17 09:14 32.731763 -117.175459 56 19ft 0kts
24-Dec-17 09:15 32.731763 -117.175459 56 19ft 0kts
24-Dec-17 09:16 32.731763 -117.175459 56 19ft 0kts
24-Dec-17 09:17 32.731763 -117.175459 56 19ft 0kts
24-Dec-17 09:18 32.731762 -117.175459 56 19ft 0kts
24-Dec-17 09:19 32.731763 -117.175462 15 19ft 0kts
24-Dec-17 09:20 32.731760 -117.175470 294 19ft 0kts
24-Dec-17 09:21 32.731760 -117.175469 294 19ft 0kts
24-Dec-17 09:22 32.731760 -117.175469 295 19ft 0kts
24-Dec-17 09:23 32.731760 -117.175469 295 19ft 0kts
24-Dec-17 09:24 32.732912 -117.177347 312 103ft 43kts
24-Dec-17 09:25 32.747164 -117.194021 318 856ft 99kts
24-Dec-17 09:26 32.773896 -117.206387 354 1030ft 103kts
24-Dec-17 09:27 32.803648 -117.214198 331 1226ft 115kts
24-Dec-17 09:28 32.829949 -117.229735 342 1818ft 105kts
24-Dec-17 09:29 32.855434 -117.229929 344 2738ft 79kts
24-Dec-17 09:30 32.879107 -117.242534 338 3202ft 82kts
24-Dec-17 09:31 32.900685 -117.252784 337 3599ft 100kts
24-Dec-17 09:32 32.929679 -117.255357 349 3095ft 77kts
24-Dec-17 09:33 32.952644 -117.262917 340 3575ft 97kts
24-Dec-17 09:34 32.979839 -117.271439 343 3554ft 98kts
24-Dec-17 09:35 33.007205 -117.284471 337 3506ft 94kts
24-Dec-17 09:36 33.030796 -117.296463 339 4501ft 115kts
24-Dec-17 09:37 33.060830 -117.308339 344 4549ft 121kts
24-Dec-17 09:38 33.090264 -117.322459 338 4605ft 101kts
24-Dec-17 09:39 33.120413 -117.337263 329 4686ft 131kts
24-Dec-17 09:40 33.146824 -117.354857 333 4414ft 120kts
24-Dec-17 09:41 33.173476 -117.372458 325 4486ft 125kts
24-Dec-17 09:42 33.196830 -117.393100 320 4923ft 106kts
24-Dec-17 09:43 33.223369 -117.415672 319 4356ft 108kts
24-Dec-17 09:44 33.246912 -117.437198 316 4465ft 128kts
24-Dec-17 09:45 33.269387 -117.456159 321 5189ft 91kts
24-Dec-17 09:46 33.295599 -117.478034 320 4560ft 118kts
24-Dec-17 09:47 33.320817 -117.498759 318 3966ft 119kts
24-Dec-17 09:48 33.346704 -117.526937 311 3207ft 119kts
24-Dec-17 09:49 33.369473 -117.558805 307 2646ft 125kts
24-Dec-17 09:50 33.393418 -117.587407 318 2657ft 126kts
24-Dec-17 09:51 33.422457 -117.610506 308 1829ft 85kts
24-Dec-17 09:52 33.445504 -117.636588 313 1472ft 89kts
24-Dec-17 09:53 33.467379 -117.662539 320 1300ft 140kts
24-Dec-17 09:54 33.486137 -117.664732 356 1875ft 92kts
24-Dec-17 09:55 33.505793 -117.666119 347 1559ft 114kts
24-Dec-17 09:56 33.538242 -117.672606 352 1477ft 123kts
24-Dec-17 09:57 33.569777 -117.673389 359 1609ft 113kts
24-Dec-17 09:58 33.600289 -117.680002 341 1774ft 109kts
24-Dec-17 09:59 33.621653 -117.708077 304 1634ft 113kts
24-Dec-17 10:00 33.646645 -117.736726 321 862ft 115kts
24-Dec-17 10:01 33.674331 -117.757039 331 824ft 103kts
24-Dec-17 10:02 33.700475 -117.775693 325 1194ft 104kts
24-Dec-17 10:03 33.720294 -117.798200 310 1731ft 108kts
24-Dec-17 10:04 33.737359 -117.822482 305 1437ft 122kts
24-Dec-17 10:05 33.757157 -117.852423 310 1549ft 119kts
24-Dec-17 10:06 33.778302 -117.874940 317 2515ft 81kts
24-Dec-17 10:07 33.793365 -117.890554 318 2751ft 133kts
24-Dec-17 10:08 33.814826 -117.912227 316 3047ft 114kts
24-Dec-17 10:09 33.833356 -117.939140 307 3033ft 102kts
24-Dec-17 10:10 33.852603 -117.962335 307 3191ft 103kts
24-Dec-17 10:11 33.864090 -117.992235 295 4185ft 98kts
24-Dec-17 10:12 33.881988 -118.019374 17 2856ft 73kts
24-Dec-17 10:13 33.904856 -118.000903 30 2239ft 129kts
24-Dec-17 10:14 33.935256 -117.990333 10 2105ft 104kts
24-Dec-17 10:15 33.967365 -117.986912 2 1568ft 70kts
24-Dec-17 10:16 33.981991 -117.988326 346 2596ft 88kts
24-Dec-17 10:17 34.012617 -117.998368 343 2085ft 100kts
24-Dec-17 10:18 34.042594 -118.008331 339 1383ft 108kts
24-Dec-17 10:19 34.068506 -118.020328 334 1129ft 111kts
24-Dec-17 10:20 34.085169 -118.034756 128 300ft 28kts
24-Dec-17 10:21 34.085366 -118.033147 238 300ft 7kts
24-Dec-17 10:22 34.084561 -118.033825 199 300ft 0kts
24-Dec-17 10:23 34.084561 -118.033825 199 300ft 0kts
24-Dec-17 10:24 34.084561 -118.033825 199 300ft 0kts

Navigation Log

Ident Type
Flight plan parsing failed, navigation log unavailable